sensor_id;sensor_type;location;lat;lon;timestamp;P1;durP1;ratioP1;P2;durP2;ratioP2
23362;SDS011;11853;48.080;11.960;2023-03-01T00:01:21;23.60;;;17.48;;
23362;SDS011;11853;48.080;11.960;2023-03-01T00:03:49;26.30;;;18.13;;
23362;SDS011;11853;48.080;11.960;2023-03-01T00:06:15;21.95;;;18.25;;
23362;SDS011;11853;48.080;11.960;2023-03-01T00:08:40;22.58;;;17.58;;
23362;SDS011;11853;48.080;11.960;2023-03-01T00:13:39;23.42;;;17.42;;
23362;SDS011;11853;48.080;11.960;2023-03-01T00:16:07;22.05;;;17.02;;
23362;SDS011;11853;48.080;11.960;2023-03-01T00:18:34;23.83;;;17.67;;
23362;SDS011;11853;48.080;11.960;2023-03-01T00:21:00;21.58;;;17.42;;
23362;SDS011;11853;48.080;11.960;2023-03-01T00:23:26;23.00;;;17.45;;
23362;SDS011;11853;48.080;11.960;2023-03-01T00:25:52;23.70;;;18.90;;
23362;SDS011;11853;48.080;11.960;2023-03-01T00:28:18;24.23;;;18.70;;
23362;SDS011;11853;48.080;11.960;2023-03-01T00:30:46;22.77;;;17.58;;
23362;SDS011;11853;48.080;11.960;2023-03-01T00:33:12;19.85;;;17.05;;
23362;SDS011;11853;48.080;11.960;2023-03-01T00:35:38;23.52;;;17.70;;
23362;SDS011;11853;48.080;11.960;2023-03-01T00:38:04;23.27;;;17.00;;
23362;SDS011;11853;48.080;11.960;2023-03-01T00:40:32;24.65;;;18.45;;
23362;SDS011;11853;48.080;11.960;2023-03-01T00:42:59;24.58;;;17.40;;
23362;SDS011;11853;48.080;11.960;2023-03-01T00:45:25;21.52;;;17.10;;
23362;SDS011;11853;48.080;11.960;2023-03-01T00:47:50;22.25;;;17.73;;
23362;SDS011;11853;48.080;11.960;2023-03-01T00:50:17;23.60;;;18.65;;
23362;SDS011;11853;48.080;11.960;2023-03-01T00:52:43;23.05;;;17.95;;
23362;SDS011;11853;48.080;11.960;2023-03-01T00:55:09;21.98;;;18.45;;
23362;SDS011;11853;48.080;11.960;2023-03-01T00:57:35;27.50;;;18.90;;
23362;SDS011;11853;48.080;11.960;2023-03-01T01:00:01;24.80;;;18.15;;
23362;SDS011;11853;48.080;11.960;2023-03-01T01:02:28;23.48;;;17.67;;
23362;SDS011;11853;48.080;11.960;2023-03-01T01:04:53;24.08;;;18.35;;
23362;SDS011;11853;48.080;11.960;2023-03-01T01:07:19;22.88;;;17.98;;
23362;SDS011;11853;48.080;11.960;2023-03-01T01:09:47;22.92;;;18.38;;
23362;SDS011;11853;48.080;11.960;2023-03-01T01:12:12;21.10;;;17.48;;
23362;SDS011;11853;48.080;11.960;2023-03-01T01:14:38;24.30;;;17.92;;
23362;SDS011;11853;48.080;11.960;2023-03-01T01:17:03;24.10;;;18.45;;
23362;SDS011;11853;48.080;11.960;2023-03-01T01:19:29;25.83;;;18.52;;
23362;SDS011;11853;48.080;11.960;2023-03-01T01:21:55;28.17;;;18.42;;
23362;SDS011;11853;48.080;11.960;2023-03-01T01:24:20;26.02;;;17.95;;
23362;SDS011;11853;48.080;11.960;2023-03-01T01:26:46;24.67;;;18.15;;
23362;SDS011;11853;48.080;11.960;2023-03-01T01:29:12;23.25;;;17.60;;
23362;SDS011;11853;48.080;11.960;2023-03-01T01:31:38;23.83;;;18.25;;
23362;SDS011;11853;48.080;11.960;2023-03-01T01:34:05;20.83;;;17.20;;
23362;SDS011;11853;48.080;11.960;2023-03-01T01:36:33;23.63;;;18.42;;
23362;SDS011;11853;48.080;11.960;2023-03-01T01:39:00;24.95;;;18.33;;
23362;SDS011;11853;48.080;11.960;2023-03-01T01:41:27;21.73;;;17.77;;
23362;SDS011;11853;48.080;11.960;2023-03-01T01:44:11;22.15;;;18.13;;
23362;SDS011;11853;48.080;11.960;2023-03-01T01:46:54;24.48;;;18.58;;
23362;SDS011;11853;48.080;11.960;2023-03-01T01:51:57;23.38;;;18.67;;
23362;SDS011;11853;48.080;11.960;2023-03-01T01:54:38;21.92;;;17.65;;
23362;SDS011;11853;48.080;11.960;2023-03-01T01:57:14;22.27;;;18.23;;
23362;SDS011;11853;48.080;11.960;2023-03-01T02:00:14;22.70;;;17.83;;
23362;SDS011;11853;48.080;11.960;2023-03-01T02:02:42;25.90;;;18.67;;
23362;SDS011;11853;48.080;11.960;2023-03-01T02:05:12;22.02;;;17.92;;
23362;SDS011;11853;48.080;11.960;2023-03-01T02:07:38;22.05;;;18.23;;
23362;SDS011;11853;48.080;11.960;2023-03-01T02:10:05;25.27;;;18.60;;
23362;SDS011;11853;48.080;11.960;2023-03-01T02:12:31;22.40;;;17.60;;
23362;SDS011;11853;48.080;11.960;2023-03-01T02:14:57;23.40;;;18.70;;
23362;SDS011;11853;48.080;11.960;2023-03-01T02:17:23;21.17;;;17.85;;
23362;SDS011;11853;48.080;11.960;2023-03-01T02:19:55;21.35;;;17.52;;
23362;SDS011;11853;48.080;11.960;2023-03-01T02:27:29;20.90;;;16.90;;
23362;SDS011;11853;48.080;11.960;2023-03-01T02:30:03;25.55;;;17.33;;
23362;SDS011;11853;48.080;11.960;2023-03-01T02:32:29;22.75;;;18.48;;
23362;SDS011;11853;48.080;11.960;2023-03-01T02:34:56;22.60;;;17.92;;
23362;SDS011;11853;48.080;11.960;2023-03-01T02:37:21;23.13;;;19.45;;
23362;SDS011;11853;48.080;11.960;2023-03-01T02:39:59;23.90;;;18.30;;
23362;SDS011;11853;48.080;11.960;2023-03-01T02:42:31;24.15;;;17.30;;
23362;SDS011;11853;48.080;11.960;2023-03-01T02:45:02;25.13;;;18.02;;
23362;SDS011;11853;48.080;11.960;2023-03-01T02:47:28;24.73;;;19.33;;
23362;SDS011;11853;48.080;11.960;2023-03-01T02:49:53;23.83;;;18.58;;
23362;SDS011;11853;48.080;11.960;2023-03-01T02:55:19;22.15;;;18.50;;
23362;SDS011;11853;48.080;11.960;2023-03-01T02:57:46;25.50;;;18.65;;
23362;SDS011;11853;48.080;11.960;2023-03-01T03:00:20;22.00;;;17.80;;
23362;SDS011;11853;48.080;11.960;2023-03-01T03:02:51;23.08;;;17.98;;
23362;SDS011;11853;48.080;11.960;2023-03-01T03:05:18;23.25;;;19.27;;
23362;SDS011;11853;48.080;11.960;2023-03-01T03:07:48;25.15;;;19.20;;
23362;SDS011;11853;48.080;11.960;2023-03-01T03:13:03;23.35;;;18.10;;
23362;SDS011;11853;48.080;11.960;2023-03-01T03:15:32;24.17;;;18.75;;
23362;SDS011;11853;48.080;11.960;2023-03-01T03:18:01;23.33;;;18.80;;
23362;SDS011;11853;48.080;11.960;2023-03-01T03:20:29;22.73;;;17.90;;
23362;SDS011;11853;48.080;11.960;2023-03-01T03:22:56;26.67;;;19.33;;
23362;SDS011;11853;48.080;11.960;2023-03-01T03:25:23;24.50;;;19.13;;
23362;SDS011;11853;48.080;11.960;2023-03-01T03:27:50;22.77;;;18.58;;
23362;SDS011;11853;48.080;11.960;2023-03-01T03:30:22;23.20;;;18.00;;
23362;SDS011;11853;48.080;11.960;2023-03-01T03:32:53;22.50;;;18.67;;
23362;SDS011;11853;48.080;11.960;2023-03-01T03:35:20;23.75;;;18.95;;
23362;SDS011;11853;48.080;11.960;2023-03-01T03:37:51;22.88;;;18.25;;
23362;SDS011;11853;48.080;11.960;2023-03-01T03:40:37;22.30;;;18.85;;
23362;SDS011;11853;48.080;11.960;2023-03-01T03:43:05;27.92;;;19.23;;
23362;SDS011;11853;48.080;11.960;2023-03-01T03:45:32;24.40;;;19.60;;
23362;SDS011;11853;48.080;11.960;2023-03-01T03:48:00;21.83;;;18.17;;
23362;SDS011;11853;48.080;11.960;2023-03-01T03:50:26;24.30;;;19.00;;
23362;SDS011;11853;48.080;11.960;2023-03-01T03:52:52;23.08;;;18.45;;
23362;SDS011;11853;48.080;11.960;2023-03-01T03:55:18;22.73;;;19.55;;
23362;SDS011;11853;48.080;11.960;2023-03-01T03:57:45;26.45;;;19.70;;
23362;SDS011;11853;48.080;11.960;2023-03-01T04:00:20;25.98;;;19.52;;
23362;SDS011;11853;48.080;11.960;2023-03-01T04:05:15;24.02;;;18.33;;
23362;SDS011;11853;48.080;11.960;2023-03-01T04:07:43;23.08;;;18.80;;
23362;SDS011;11853;48.080;11.960;2023-03-01T04:10:11;26.60;;;18.35;;
23362;SDS011;11853;48.080;11.960;2023-03-01T04:12:39;25.13;;;19.55;;
23362;SDS011;11853;48.080;11.960;2023-03-01T04:15:06;25.42;;;19.90;;
23362;SDS011;11853;48.080;11.960;2023-03-01T04:17:39;24.77;;;18.85;;
23362;SDS011;11853;48.080;11.960;2023-03-01T04:20:06;28.15;;;19.23;;
23362;SDS011;11853;48.080;11.960;2023-03-01T04:22:37;26.35;;;19.13;;
23362;SDS011;11853;48.080;11.960;2023-03-01T04:25:04;20.85;;;18.20;;
23362;SDS011;11853;48.080;11.960;2023-03-01T04:27:34;30.13;;;21.35;;
23362;SDS011;11853;48.080;11.960;2023-03-01T04:30:00;24.17;;;18.88;;
23362;SDS011;11853;48.080;11.960;2023-03-01T04:32:26;24.75;;;19.58;;
23362;SDS011;11853;48.080;11.960;2023-03-01T04:34:52;26.60;;;19.95;;
23362;SDS011;11853;48.080;11.960;2023-03-01T04:37:17;26.50;;;19.65;;
23362;SDS011;11853;48.080;11.960;2023-03-01T04:42:42;32.08;;;20.52;;
23362;SDS011;11853;48.080;11.960;2023-03-01T04:45:08;23.13;;;19.20;;
23362;SDS011;11853;48.080;11.960;2023-03-01T04:47:41;24.25;;;19.15;;
23362;SDS011;11853;48.080;11.960;2023-03-01T04:53:31;28.63;;;19.55;;
23362;SDS011;11853;48.080;11.960;2023-03-01T04:56:01;27.05;;;20.15;;
23362;SDS011;11853;48.080;11.960;2023-03-01T04:58:27;27.63;;;20.40;;
23362;SDS011;11853;48.080;11.960;2023-03-01T05:00:53;26.38;;;19.40;;
23362;SDS011;11853;48.080;11.960;2023-03-01T05:03:19;26.77;;;19.98;;
23362;SDS011;11853;48.080;11.960;2023-03-01T05:05:46;24.85;;;19.70;;
23362;SDS011;11853;48.080;11.960;2023-03-01T05:08:12;23.40;;;19.55;;
23362;SDS011;11853;48.080;11.960;2023-03-01T05:10:43;24.95;;;18.55;;
23362;SDS011;11853;48.080;11.960;2023-03-01T05:13:11;25.50;;;19.58;;
23362;SDS011;11853;48.080;11.960;2023-03-01T05:15:38;27.05;;;20.77;;
23362;SDS011;11853;48.080;11.960;2023-03-01T05:18:04;28.27;;;19.80;;
23362;SDS011;11853;48.080;11.960;2023-03-01T05:20:36;24.10;;;19.23;;
23362;SDS011;11853;48.080;11.960;2023-03-01T05:23:03;25.63;;;20.35;;
23362;SDS011;11853;48.080;11.960;2023-03-01T05:25:30;26.25;;;20.20;;
23362;SDS011;11853;48.080;11.960;2023-03-01T05:28:00;27.58;;;20.50;;
23362;SDS011;11853;48.080;11.960;2023-03-01T05:30:30;29.00;;;21.50;;
23362;SDS011;11853;48.080;11.960;2023-03-01T05:32:59;28.80;;;20.73;;
23362;SDS011;11853;48.080;11.960;2023-03-01T05:35:25;26.98;;;20.73;;
23362;SDS011;11853;48.080;11.960;2023-03-01T05:37:51;28.77;;;20.90;;
23362;SDS011;11853;48.080;11.960;2023-03-01T05:40:18;31.58;;;21.15;;
23362;SDS011;11853;48.080;11.960;2023-03-01T05:42:46;27.25;;;20.45;;
23362;SDS011;11853;48.080;11.960;2023-03-01T05:45:13;26.85;;;20.70;;
23362;SDS011;11853;48.080;11.960;2023-03-01T05:47:40;28.42;;;21.38;;
23362;SDS011;11853;48.080;11.960;2023-03-01T05:50:19;30.83;;;20.58;;
23362;SDS011;11853;48.080;11.960;2023-03-01T05:52:48;28.35;;;19.23;;
23362;SDS011;11853;48.080;11.960;2023-03-01T05:55:18;28.10;;;20.27;;
23362;SDS011;11853;48.080;11.960;2023-03-01T05:57:46;31.08;;;20.58;;
23362;SDS011;11853;48.080;11.960;2023-03-01T06:00:13;29.58;;;20.90;;
23362;SDS011;11853;48.080;11.960;2023-03-01T06:02:40;26.73;;;21.15;;
23362;SDS011;11853;48.080;11.960;2023-03-01T06:05:07;31.80;;;22.33;;
23362;SDS011;11853;48.080;11.960;2023-03-01T06:07:33;33.05;;;23.13;;
23362;SDS011;11853;48.080;11.960;2023-03-01T06:10:00;32.70;;;22.80;;
23362;SDS011;11853;48.080;11.960;2023-03-01T06:12:25;31.60;;;21.20;;
23362;SDS011;11853;48.080;11.960;2023-03-01T06:14:51;28.80;;;20.65;;
23362;SDS011;11853;48.080;11.960;2023-03-01T06:17:16;31.98;;;21.77;;
23362;SDS011;11853;48.080;11.960;2023-03-01T06:19:42;28.50;;;20.73;;
23362;SDS011;11853;48.080;11.960;2023-03-01T06:22:07;25.98;;;20.63;;
23362;SDS011;11853;48.080;11.960;2023-03-01T06:24:33;28.30;;;21.15;;
23362;SDS011;11853;48.080;11.960;2023-03-01T06:26:59;29.27;;;21.73;;
23362;SDS011;11853;48.080;11.960;2023-03-01T06:29:24;30.55;;;21.95;;
23362;SDS011;11853;48.080;11.960;2023-03-01T06:31:50;29.30;;;21.77;;
23362;SDS011;11853;48.080;11.960;2023-03-01T06:34:15;28.42;;;21.90;;
23362;SDS011;11853;48.080;11.960;2023-03-01T06:36:41;28.42;;;22.02;;
23362;SDS011;11853;48.080;11.960;2023-03-01T06:39:07;29.02;;;21.45;;
23362;SDS011;11853;48.080;11.960;2023-03-01T06:41:32;29.08;;;21.50;;
23362;SDS011;11853;48.080;11.960;2023-03-01T06:43:58;32.22;;;22.13;;
23362;SDS011;11853;48.080;11.960;2023-03-01T06:46:24;32.35;;;22.33;;
23362;SDS011;11853;48.080;11.960;2023-03-01T06:48:50;28.23;;;21.58;;
23362;SDS011;11853;48.080;11.960;2023-03-01T06:51:16;29.73;;;21.70;;
23362;SDS011;11853;48.080;11.960;2023-03-01T06:53:42;34.92;;;21.83;;
23362;SDS011;11853;48.080;11.960;2023-03-01T06:56:07;32.08;;;21.50;;
23362;SDS011;11853;48.080;11.960;2023-03-01T06:58:33;32.60;;;22.38;;
23362;SDS011;11853;48.080;11.960;2023-03-01T07:00:58;30.58;;;21.42;;
23362;SDS011;11853;48.080;11.960;2023-03-01T07:03:30;30.48;;;21.67;;
23362;SDS011;11853;48.080;11.960;2023-03-01T07:05:55;28.95;;;22.90;;
23362;SDS011;11853;48.080;11.960;2023-03-01T07:08:20;33.53;;;24.15;;
23362;SDS011;11853;48.080;11.960;2023-03-01T07:10:46;29.20;;;22.52;;
23362;SDS011;11853;48.080;11.960;2023-03-01T07:13:12;29.58;;;22.60;;
23362;SDS011;11853;48.080;11.960;2023-03-01T07:15:37;31.42;;;23.27;;
23362;SDS011;11853;48.080;11.960;2023-03-01T07:18:05;29.55;;;22.90;;
23362;SDS011;11853;48.080;11.960;2023-03-01T07:20:31;29.33;;;21.02;;
23362;SDS011;11853;48.080;11.960;2023-03-01T07:22:58;28.73;;;21.90;;
23362;SDS011;11853;48.080;11.960;2023-03-01T07:25:24;30.20;;;22.65;;
23362;SDS011;11853;48.080;11.960;2023-03-01T07:27:50;29.15;;;22.15;;
23362;SDS011;11853;48.080;11.960;2023-03-01T07:30:17;30.05;;;21.85;;
23362;SDS011;11853;48.080;11.960;2023-03-01T07:32:43;32.47;;;22.73;;
23362;SDS011;11853;48.080;11.960;2023-03-01T07:35:10;29.95;;;22.23;;
23362;SDS011;11853;48.080;11.960;2023-03-01T07:37:35;33.10;;;23.92;;
23362;SDS011;11853;48.080;11.960;2023-03-01T07:40:01;30.45;;;22.73;;
23362;SDS011;11853;48.080;11.960;2023-03-01T07:42:27;30.20;;;21.95;;
23362;SDS011;11853;48.080;11.960;2023-03-01T07:44:53;34.28;;;23.40;;
23362;SDS011;11853;48.080;11.960;2023-03-01T07:47:18;33.33;;;23.58;;
23362;SDS011;11853;48.080;11.960;2023-03-01T07:49:44;31.88;;;22.75;;
23362;SDS011;11853;48.080;11.960;2023-03-01T07:52:10;29.77;;;21.67;;
23362;SDS011;11853;48.080;11.960;2023-03-01T07:54:37;36.95;;;23.20;;
23362;SDS011;11853;48.080;11.960;2023-03-01T07:57:02;37.88;;;24.38;;
23362;SDS011;11853;48.080;11.960;2023-03-01T07:59:28;30.13;;;22.05;;
23362;SDS011;11853;48.080;11.960;2023-03-01T08:01:55;31.10;;;22.17;;
23362;SDS011;11853;48.080;11.960;2023-03-01T08:04:22;29.10;;;22.13;;
23362;SDS011;11853;48.080;11.960;2023-03-01T08:06:50;30.58;;;22.30;;
23362;SDS011;11853;48.080;11.960;2023-03-01T08:09:16;33.47;;;23.23;;
23362;SDS011;11853;48.080;11.960;2023-03-01T08:11:42;32.38;;;22.73;;
23362;SDS011;11853;48.080;11.960;2023-03-01T08:14:08;32.42;;;22.73;;
23362;SDS011;11853;48.080;11.960;2023-03-01T08:16:35;34.20;;;24.90;;
23362;SDS011;11853;48.080;11.960;2023-03-01T08:19:08;34.97;;;22.85;;
23362;SDS011;11853;48.080;11.960;2023-03-01T08:21:36;32.47;;;24.48;;
23362;SDS011;11853;48.080;11.960;2023-03-01T08:24:02;32.85;;;23.05;;
23362;SDS011;11853;48.080;11.960;2023-03-01T08:26:29;32.97;;;22.77;;
23362;SDS011;11853;48.080;11.960;2023-03-01T08:28:55;35.38;;;23.20;;
23362;SDS011;11853;48.080;11.960;2023-03-01T08:31:23;32.35;;;22.30;;
23362;SDS011;11853;48.080;11.960;2023-03-01T08:33:49;33.92;;;24.00;;
23362;SDS011;11853;48.080;11.960;2023-03-01T08:36:21;35.20;;;24.10;;
23362;SDS011;11853;48.080;11.960;2023-03-01T08:38:57;30.77;;;21.98;;
23362;SDS011;11853;48.080;11.960;2023-03-01T08:41:23;35.20;;;23.45;;
23362;SDS011;11853;48.080;11.960;2023-03-01T08:43:49;30.88;;;22.50;;
23362;SDS011;11853;48.080;11.960;2023-03-01T08:46:17;30.65;;;22.52;;
23362;SDS011;11853;48.080;11.960;2023-03-01T08:48:43;33.53;;;24.17;;
23362;SDS011;11853;48.080;11.960;2023-03-01T08:51:09;31.30;;;22.90;;
23362;SDS011;11853;48.080;11.960;2023-03-01T08:53:38;31.13;;;21.98;;
23362;SDS011;11853;48.080;11.960;2023-03-01T08:56:04;33.80;;;22.88;;
23362;SDS011;11853;48.080;11.960;2023-03-01T08:58:30;32.08;;;22.67;;
23362;SDS011;11853;48.080;11.960;2023-03-01T09:00:58;31.95;;;22.90;;
23362;SDS011;11853;48.080;11.960;2023-03-01T09:03:24;33.05;;;23.65;;
23362;SDS011;11853;48.080;11.960;2023-03-01T09:05:51;34.63;;;22.60;;
23362;SDS011;11853;48.080;11.960;2023-03-01T09:08:18;31.60;;;23.48;;
23362;SDS011;11853;48.080;11.960;2023-03-01T09:10:44;32.55;;;23.75;;
23362;SDS011;11853;48.080;11.960;2023-03-01T09:13:10;32.08;;;23.77;;
23362;SDS011;11853;48.080;11.960;2023-03-01T09:15:37;31.27;;;23.85;;
23362;SDS011;11853;48.080;11.960;2023-03-01T09:18:03;36.17;;;23.42;;
23362;SDS011;11853;48.080;11.960;2023-03-01T09:20:30;32.33;;;23.05;;
23362;SDS011;11853;48.080;11.960;2023-03-01T09:22:56;33.42;;;24.08;;
23362;SDS011;11853;48.080;11.960;2023-03-01T09:25:22;34.92;;;24.25;;
23362;SDS011;11853;48.080;11.960;2023-03-01T09:27:52;30.17;;;23.52;;
23362;SDS011;11853;48.080;11.960;2023-03-01T09:30:19;34.97;;;22.63;;
23362;SDS011;11853;48.080;11.960;2023-03-01T09:32:45;34.75;;;23.70;;
23362;SDS011;11853;48.080;11.960;2023-03-01T09:35:11;31.60;;;23.42;;
23362;SDS011;11853;48.080;11.960;2023-03-01T09:37:37;29.60;;;22.05;;
23362;SDS011;11853;48.080;11.960;2023-03-01T09:40:03;30.70;;;22.17;;
23362;SDS011;11853;48.080;11.960;2023-03-01T09:42:31;29.70;;;22.60;;
23362;SDS011;11853;48.080;11.960;2023-03-01T09:45:01;33.00;;;21.50;;
23362;SDS011;11853;48.080;11.960;2023-03-01T09:47:41;28.10;;;21.87;;
23362;SDS011;11853;48.080;11.960;2023-03-01T09:50:13;32.72;;;23.30;;
23362;SDS011;11853;48.080;11.960;2023-03-01T09:53:04;33.10;;;22.80;;
23362;SDS011;11853;48.080;11.960;2023-03-01T09:55:31;29.48;;;22.33;;
23362;SDS011;11853;48.080;11.960;2023-03-01T10:00:55;33.78;;;24.60;;
23362;SDS011;11853;48.080;11.960;2023-03-01T10:03:31;36.58;;;25.35;;
23362;SDS011;11853;48.080;11.960;2023-03-01T10:11:21;35.22;;;25.77;;
23362;SDS011;11853;48.080;11.960;2023-03-01T10:19:09;36.25;;;26.25;;
23362;SDS011;11853;48.080;11.960;2023-03-01T10:21:43;33.80;;;25.65;;
23362;SDS011;11853;48.080;11.960;2023-03-01T10:24:14;34.47;;;24.60;;
23362;SDS011;11853;48.080;11.960;2023-03-01T10:26:48;41.08;;;28.92;;
23362;SDS011;11853;48.080;11.960;2023-03-01T10:29:39;40.60;;;27.65;;
23362;SDS011;11853;48.080;11.960;2023-03-01T10:32:14;34.15;;;25.30;;
23362;SDS011;11853;48.080;11.960;2023-03-01T10:34:40;34.30;;;26.48;;
23362;SDS011;11853;48.080;11.960;2023-03-01T10:37:13;38.03;;;26.00;;
23362;SDS011;11853;48.080;11.960;2023-03-01T10:42:34;35.97;;;25.75;;
23362;SDS011;11853;48.080;11.960;2023-03-01T10:45:37;33.15;;;24.80;;
23362;SDS011;11853;48.080;11.960;2023-03-01T10:48:17;33.55;;;25.02;;
23362;SDS011;11853;48.080;11.960;2023-03-01T10:53:24;34.30;;;25.60;;
23362;SDS011;11853;48.080;11.960;2023-03-01T10:55:58;30.75;;;24.70;;
23362;SDS011;11853;48.080;11.960;2023-03-01T10:58:31;31.40;;;24.60;;
23362;SDS011;11853;48.080;11.960;2023-03-01T11:01:01;34.25;;;24.98;;
23362;SDS011;11853;48.080;11.960;2023-03-01T11:03:34;35.95;;;26.20;;
23362;SDS011;11853;48.080;11.960;2023-03-01T11:06:04;32.97;;;25.27;;
23362;SDS011;11853;48.080;11.960;2023-03-01T11:08:47;32.88;;;24.73;;
23362;SDS011;11853;48.080;11.960;2023-03-01T11:16:34;32.00;;;25.05;;
23362;SDS011;11853;48.080;11.960;2023-03-01T11:21:36;28.75;;;22.38;;
23362;SDS011;11853;48.080;11.960;2023-03-01T11:24:03;33.05;;;24.40;;
23362;SDS011;11853;48.080;11.960;2023-03-01T11:26:36;32.45;;;23.80;;
23362;SDS011;11853;48.080;11.960;2023-03-01T11:31:55;34.08;;;23.38;;
23362;SDS011;11853;48.080;11.960;2023-03-01T11:37:16;29.98;;;23.95;;
23362;SDS011;11853;48.080;11.960;2023-03-01T11:40:02;29.40;;;23.05;;
23362;SDS011;11853;48.080;11.960;2023-03-01T11:45:22;35.03;;;23.52;;
23362;SDS011;11853;48.080;11.960;2023-03-01T11:47:54;31.77;;;24.08;;
23362;SDS011;11853;48.080;11.960;2023-03-01T11:50:44;30.33;;;23.40;;
23362;SDS011;11853;48.080;11.960;2023-03-01T12:06:56;26.55;;;22.30;;
23362;SDS011;11853;48.080;11.960;2023-03-01T12:09:38;26.52;;;21.63;;
23362;SDS011;11853;48.080;11.960;2023-03-01T12:17:27;28.98;;;22.83;;
23362;SDS011;11853;48.080;11.960;2023-03-01T12:20:05;34.75;;;23.75;;
23362;SDS011;11853;48.080;11.960;2023-03-01T12:23:02;29.25;;;23.15;;
23362;SDS011;11853;48.080;11.960;2023-03-01T12:29:23;32.05;;;23.80;;
23362;SDS011;11853;48.080;11.960;2023-03-01T12:32:03;28.02;;;23.48;;
23362;SDS011;11853;48.080;11.960;2023-03-01T12:42:47;30.88;;;24.00;;
23362;SDS011;11853;48.080;11.960;2023-03-01T12:47:55;30.65;;;24.88;;
23362;SDS011;11853;48.080;11.960;2023-03-01T12:50:49;31.48;;;23.50;;
23362;SDS011;11853;48.080;11.960;2023-03-01T12:53:28;31.48;;;24.20;;
23362;SDS011;11853;48.080;11.960;2023-03-01T12:56:02;27.75;;;22.83;;
23362;SDS011;11853;48.080;11.960;2023-03-01T12:58:34;31.83;;;24.70;;
23362;SDS011;11853;48.080;11.960;2023-03-01T13:04:08;34.53;;;25.95;;
23362;SDS011;11853;48.080;11.960;2023-03-01T13:07:05;32.17;;;24.27;;
23362;SDS011;11853;48.080;11.960;2023-03-01T13:17:48;30.15;;;24.88;;
23362;SDS011;11853;48.080;11.960;2023-03-01T13:20:19;30.20;;;25.02;;
23362;SDS011;11853;48.080;11.960;2023-03-01T13:22:46;34.00;;;24.83;;
23362;SDS011;11853;48.080;11.960;2023-03-01T13:25:15;35.65;;;25.10;;
23362;SDS011;11853;48.080;11.960;2023-03-01T13:27:45;30.02;;;23.90;;
23362;SDS011;11853;48.080;11.960;2023-03-01T13:35:48;31.63;;;23.92;;
23362;SDS011;11853;48.080;11.960;2023-03-01T13:46:59;34.45;;;26.40;;
23362;SDS011;11853;48.080;11.960;2023-03-01T13:49:42;32.85;;;25.77;;
23362;SDS011;11853;48.080;11.960;2023-03-01T13:55:01;31.60;;;26.10;;
23362;SDS011;11853;48.080;11.960;2023-03-01T13:57:35;34.10;;;26.00;;
23362;SDS011;11853;48.080;11.960;2023-03-01T14:03:18;30.05;;;24.58;;
23362;SDS011;11853;48.080;11.960;2023-03-01T14:06:00;28.40;;;23.45;;
23362;SDS011;11853;48.080;11.960;2023-03-01T14:08:31;33.58;;;26.67;;
23362;SDS011;11853;48.080;11.960;2023-03-01T14:11:08;29.52;;;24.27;;
23362;SDS011;11853;48.080;11.960;2023-03-01T14:19:26;32.78;;;24.27;;
23362;SDS011;11853;48.080;11.960;2023-03-01T14:22:00;33.25;;;24.25;;
23362;SDS011;11853;48.080;11.960;2023-03-01T14:27:03;30.95;;;23.23;;
23362;SDS011;11853;48.080;11.960;2023-03-01T14:29:36;30.40;;;23.45;;
23362;SDS011;11853;48.080;11.960;2023-03-01T14:34:58;30.73;;;23.90;;
23362;SDS011;11853;48.080;11.960;2023-03-01T14:37:28;32.78;;;23.65;;
23362;SDS011;11853;48.080;11.960;2023-03-01T14:39:57;28.25;;;22.23;;
23362;SDS011;11853;48.080;11.960;2023-03-01T14:42:25;32.40;;;23.67;;
23362;SDS011;11853;48.080;11.960;2023-03-01T14:44:55;26.63;;;21.45;;
23362;SDS011;11853;48.080;11.960;2023-03-01T14:47:26;32.10;;;23.13;;
23362;SDS011;11853;48.080;11.960;2023-03-01T14:49:57;30.23;;;22.17;;
23362;SDS011;11853;48.080;11.960;2023-03-01T14:52:34;30.13;;;22.80;;
23362;SDS011;11853;48.080;11.960;2023-03-01T14:55:05;31.25;;;23.42;;
23362;SDS011;11853;48.080;11.960;2023-03-01T14:57:42;31.02;;;23.38;;
23362;SDS011;11853;48.080;11.960;2023-03-01T15:00:10;30.55;;;23.40;;
23362;SDS011;11853;48.080;11.960;2023-03-01T15:02:50;31.83;;;23.98;;
23362;SDS011;11853;48.080;11.960;2023-03-01T15:05:18;33.53;;;24.75;;
23362;SDS011;11853;48.080;11.960;2023-03-01T15:07:57;28.58;;;22.40;;
23362;SDS011;11853;48.080;11.960;2023-03-01T15:10:28;30.10;;;21.98;;
23362;SDS011;11853;48.080;11.960;2023-03-01T15:12:58;28.83;;;21.67;;
23362;SDS011;11853;48.080;11.960;2023-03-01T15:15:43;31.75;;;21.73;;
23362;SDS011;11853;48.080;11.960;2023-03-01T15:20:49;28.80;;;22.63;;
23362;SDS011;11853;48.080;11.960;2023-03-01T15:23:23;32.25;;;22.85;;
23362;SDS011;11853;48.080;11.960;2023-03-01T15:25:51;29.73;;;21.88;;
23362;SDS011;11853;48.080;11.960;2023-03-01T15:28:23;25.10;;;20.67;;
23362;SDS011;11853;48.080;11.960;2023-03-01T15:31:20;28.67;;;22.73;;
23362;SDS011;11853;48.080;11.960;2023-03-01T15:33:48;26.92;;;21.95;;
23362;SDS011;11853;48.080;11.960;2023-03-01T15:39:23;30.05;;;22.38;;
23362;SDS011;11853;48.080;11.960;2023-03-01T15:41:55;30.30;;;20.92;;
23362;SDS011;11853;48.080;11.960;2023-03-01T15:44:31;32.10;;;21.73;;
23362;SDS011;11853;48.080;11.960;2023-03-01T15:46:59;25.70;;;20.05;;
23362;SDS011;11853;48.080;11.960;2023-03-01T15:49:35;29.10;;;20.83;;
23362;SDS011;11853;48.080;11.960;2023-03-01T15:52:08;29.05;;;21.63;;
23362;SDS011;11853;48.080;11.960;2023-03-01T15:57:05;24.90;;;19.45;;
23362;SDS011;11853;48.080;11.960;2023-03-01T15:59:37;25.55;;;19.83;;
23362;SDS011;11853;48.080;11.960;2023-03-01T16:02:07;25.88;;;19.15;;
23362;SDS011;11853;48.080;11.960;2023-03-01T16:04:34;26.35;;;19.48;;
23362;SDS011;11853;48.080;11.960;2023-03-01T16:06:59;25.40;;;19.05;;
23362;SDS011;11853;48.080;11.960;2023-03-01T16:09:26;31.05;;;24.02;;
23362;SDS011;11853;48.080;11.960;2023-03-01T16:11:52;34.67;;;27.73;;
23362;SDS011;11853;48.080;11.960;2023-03-01T16:14:19;34.45;;;26.48;;
23362;SDS011;11853;48.080;11.960;2023-03-01T16:16:45;35.45;;;28.17;;
23362;SDS011;11853;48.080;11.960;2023-03-01T16:19:13;36.88;;;28.60;;
23362;SDS011;11853;48.080;11.960;2023-03-01T16:21:39;34.75;;;27.17;;
23362;SDS011;11853;48.080;11.960;2023-03-01T16:24:07;36.72;;;26.77;;
23362;SDS011;11853;48.080;11.960;2023-03-01T16:26:33;35.65;;;28.17;;
23362;SDS011;11853;48.080;11.960;2023-03-01T16:29:01;30.13;;;25.00;;
23362;SDS011;11853;48.080;11.960;2023-03-01T16:31:27;35.75;;;27.25;;
23362;SDS011;11853;48.080;11.960;2023-03-01T16:33:54;37.08;;;29.08;;
23362;SDS011;11853;48.080;11.960;2023-03-01T16:36:20;37.03;;;29.10;;
23362;SDS011;11853;48.080;11.960;2023-03-01T16:38:49;35.35;;;27.75;;
23362;SDS011;11853;48.080;11.960;2023-03-01T16:41:16;37.20;;;27.33;;
23362;SDS011;11853;48.080;11.960;2023-03-01T16:43:47;34.67;;;25.02;;
23362;SDS011;11853;48.080;11.960;2023-03-01T16:46:25;34.58;;;27.80;;